createdAt,value
2023-03-01T00:00:06.033Z,22.73
2023-03-01T00:00:52.953Z,27.40
2023-03-01T00:01:39.932Z,22.95
2023-03-01T00:02:26.892Z,26.90
2023-03-01T00:03:14.554Z,25.50
2023-03-01T00:04:01.786Z,22.90
2023-03-01T00:04:48.671Z,25.27
2023-03-01T00:05:35.592Z,26.40
2023-03-01T00:06:23.148Z,26.55
2023-03-01T00:07:10.064Z,23.65
2023-03-01T00:07:57.012Z,25.65
2023-03-01T00:08:43.984Z,27.73
2023-03-01T00:09:30.989Z,25.88
2023-03-01T00:10:18.066Z,23.27
2023-03-01T00:11:11.230Z,23.75
2023-03-01T00:11:58.178Z,22.95
2023-03-01T00:12:45.093Z,23.50
2023-03-01T00:13:32.065Z,23.85
2023-03-01T00:14:18.985Z,22.75
2023-03-01T00:15:06.225Z,24.83
2023-03-01T00:15:53.075Z,22.45
2023-03-01T00:16:42.160Z,26.60
2023-03-01T00:17:29.113Z,23.00
2023-03-01T00:18:15.918Z,23.12
2023-03-01T00:19:02.997Z,24.08
2023-03-01T00:19:49.842Z,25.60
2023-03-01T00:20:36.737Z,25.30
2023-03-01T00:21:24.735Z,24.55
2023-03-01T00:22:11.695Z,23.17
2023-03-01T00:22:58.584Z,25.00
2023-03-01T00:23:45.433Z,21.65
2023-03-01T00:24:32.398Z,22.08
2023-03-01T00:25:19.300Z,22.77
2023-03-01T00:26:14.507Z,23.60
2023-03-01T00:27:01.447Z,20.98
2023-03-01T00:27:50.116Z,25.10
2023-03-01T00:28:37.212Z,25.92
2023-03-01T00:29:25.388Z,24.77
2023-03-01T00:30:12.519Z,22.33
2023-03-01T00:31:07.912Z,22.58
2023-03-01T00:31:54.910Z,25.25
2023-03-01T00:32:41.834Z,25.12
2023-03-01T00:33:28.630Z,19.60
2023-03-01T00:34:15.517Z,23.62
2023-03-01T00:35:02.411Z,24.80
2023-03-01T00:35:49.329Z,21.40
2023-03-01T00:36:37.820Z,24.58
2023-03-01T00:37:24.897Z,24.83
2023-03-01T00:38:11.786Z,30.62
2023-03-01T00:38:59.022Z,24.60
2023-03-01T00:39:45.900Z,24.63
2023-03-01T00:40:35.410Z,23.45
2023-03-01T00:41:23.959Z,23.12
2023-03-01T00:42:10.794Z,23.77
2023-03-01T00:42:57.700Z,24.05
2023-03-01T00:43:45.725Z,21.48
2023-03-01T00:44:32.651Z,25.80
2023-03-01T00:45:19.668Z,23.05
2023-03-01T00:46:09.244Z,23.38
2023-03-01T00:46:56.310Z,25.95
2023-03-01T00:47:43.546Z,23.55
2023-03-01T00:48:30.380Z,22.95
2023-03-01T00:49:17.268Z,22.02
2023-03-01T00:50:04.391Z,22.98
2023-03-01T00:50:51.258Z,24.87
2023-03-01T00:51:38.293Z,22.33
2023-03-01T00:52:25.189Z,20.52
2023-03-01T00:53:12.090Z,24.33
2023-03-01T00:54:01.551Z,24.37
2023-03-01T00:54:48.410Z,20.37
2023-03-01T00:55:35.327Z,23.17
2023-03-01T00:56:22.431Z,23.62
2023-03-01T00:57:09.341Z,22.90
2023-03-01T00:57:56.259Z,23.58
2023-03-01T00:58:43.618Z,21.02
2023-03-01T00:59:30.519Z,23.23
2023-03-01T01:00:17.808Z,21.35
2023-03-01T01:01:18.497Z,21.90
2023-03-01T01:02:52.248Z,20.55
2023-03-01T01:03:40.042Z,21.58
2023-03-01T01:04:26.881Z,23.75
2023-03-01T01:05:13.896Z,24.33
2023-03-01T01:06:06.068Z,21.80
2023-03-01T01:06:52.980Z,22.17
2023-03-01T01:07:40.191Z,20.98
2023-03-01T01:08:27.047Z,23.10
2023-03-01T01:09:19.849Z,20.98
2023-03-01T01:10:07.832Z,21.08
2023-03-01T01:10:54.725Z,21.75
2023-03-01T01:11:41.643Z,23.48
2023-03-01T01:12:28.556Z,20.88
2023-03-01T01:13:15.654Z,20.73
2023-03-01T01:14:02.594Z,21.65
2023-03-01T01:14:49.464Z,23.85
2023-03-01T01:15:36.374Z,23.77
2023-03-01T01:16:24.976Z,22.73
2023-03-01T01:17:11.848Z,22.13
2023-03-01T01:17:58.723Z,25.02
2023-03-01T01:18:46.111Z,21.23
2023-03-01T01:19:33.222Z,23.62
2023-03-01T01:20:20.192Z,20.55
2023-03-01T01:21:09.584Z,22.52
2023-03-01T01:21:56.537Z,20.15
2023-03-01T01:22:43.381Z,23.38
2023-03-01T01:23:30.253Z,20.33
2023-03-01T01:24:19.680Z,22.40
2023-03-01T01:25:06.930Z,20.23
2023-03-01T01:25:53.858Z,21.90
2023-03-01T01:26:40.890Z,25.60
2023-03-01T01:27:27.774Z,20.67
2023-03-01T01:28:14.635Z,21.15
2023-03-01T01:29:03.663Z,24.00
2023-03-01T01:29:50.682Z,20.77
2023-03-01T01:30:37.630Z,21.48
2023-03-01T01:31:25.366Z,21.05
2023-03-01T01:32:12.368Z,24.02
2023-03-01T01:32:59.213Z,20.60
2023-03-01T01:33:46.794Z,24.05
2023-03-01T01:34:33.685Z,20.23
2023-03-01T01:35:20.643Z,22.40
2023-03-01T01:36:08.227Z,20.02
2023-03-01T01:36:55.653Z,21.15
2023-03-01T01:37:42.533Z,21.80
2023-03-01T01:38:29.430Z,21.52
2023-03-01T01:39:16.334Z,22.92
2023-03-01T01:40:06.742Z,21.00
2023-03-01T01:40:53.703Z,20.50
2023-03-01T01:41:43.305Z,22.48
2023-03-01T01:42:30.204Z,20.42
2023-03-01T01:43:32.365Z,25.45
2023-03-01T01:44:19.183Z,23.40
2023-03-01T01:45:29.420Z,21.25
2023-03-01T01:46:25.377Z,16.00
2023-03-01T01:47:23.451Z,22.35
2023-03-01T01:48:14.679Z,22.30
2023-03-01T01:49:07.668Z,21.75
2023-03-01T01:49:58.337Z,23.62
2023-03-01T01:51:41.139Z,25.77
2023-03-01T01:52:37.273Z,19.77
2023-03-01T01:53:25.246Z,23.85
2023-03-01T01:54:30.446Z,20.83
2023-03-01T01:55:28.661Z,22.70
2023-03-01T01:56:16.684Z,23.25
2023-03-01T01:57:05.437Z,25.50
2023-03-01T01:57:56.068Z,28.55
2023-03-01T01:59:30.173Z,21.75
2023-03-01T02:00:28.638Z,22.52
2023-03-01T02:01:15.638Z,21.87
2023-03-01T02:02:04.970Z,23.12
2023-03-01T02:03:19.022Z,21.90
2023-03-01T02:04:07.702Z,20.83
2023-03-01T02:05:04.833Z,23.62
2023-03-01T02:06:13.293Z,23.70
2023-03-01T02:07:05.313Z,23.12
2023-03-01T02:07:52.534Z,21.08
2023-03-01T02:08:42.493Z,21.62
2023-03-01T02:09:29.484Z,23.70
2023-03-01T02:10:16.790Z,23.85
2023-03-01T02:11:05.448Z,23.02
2023-03-01T02:11:52.834Z,23.05
2023-03-01T02:12:40.164Z,21.50
2023-03-01T02:13:27.772Z,22.58
2023-03-01T02:14:16.202Z,21.33
2023-03-01T02:15:03.186Z,26.17
2023-03-01T02:15:50.492Z,21.77
2023-03-01T02:16:37.657Z,24.52
2023-03-01T02:17:24.835Z,21.60
2023-03-01T02:18:14.840Z,22.35
2023-03-01T02:19:02.332Z,22.33
2023-03-01T02:20:20.096Z,22.70
2023-03-01T02:21:07.075Z,21.55
2023-03-01T02:22:22.126Z,20.85
2023-03-01T02:23:09.376Z,21.75
2023-03-01T02:23:59.119Z,23.67
2023-03-01T02:24:53.157Z,21.50
2023-03-01T02:25:40.020Z,20.75
2023-03-01T02:26:36.677Z,26.77
2023-03-01T02:27:25.921Z,22.95
2023-03-01T02:28:16.782Z,22.42
2023-03-01T02:29:04.317Z,25.40
2023-03-01T02:29:51.380Z,23.33
2023-03-01T02:30:38.367Z,22.90
2023-03-01T02:31:43.195Z,23.75
2023-03-01T02:32:30.343Z,22.40
2023-03-01T02:33:17.268Z,23.70
2023-03-01T02:34:05.727Z,24.80
2023-03-01T02:34:54.782Z,21.40
2023-03-01T02:35:41.857Z,22.65
2023-03-01T02:36:47.825Z,22.23
2023-03-01T02:37:36.787Z,20.37
2023-03-01T02:38:24.274Z,22.25
2023-03-01T02:39:17.756Z,22.70
2023-03-01T02:40:08.132Z,25.35
2023-03-01T02:40:56.077Z,23.50
2023-03-01T02:41:46.050Z,24.20
2023-03-01T02:42:40.142Z,22.52
2023-03-01T02:43:30.477Z,21.65
2023-03-01T02:44:17.426Z,22.33
2023-03-01T02:45:04.720Z,23.17
2023-03-01T02:45:53.759Z,22.65
2023-03-01T02:46:55.513Z,20.42
2023-03-01T02:47:42.410Z,19.67
2023-03-01T02:48:29.247Z,21.00
2023-03-01T02:49:30.081Z,22.25
2023-03-01T02:51:20.610Z,20.02
2023-03-01T02:53:17.933Z,21.15
2023-03-01T02:54:29.687Z,21.10
2023-03-01T02:55:18.473Z,21.33
2023-03-01T02:56:05.539Z,21.12
2023-03-01T02:56:53.238Z,19.75
2023-03-01T02:57:42.322Z,18.98
2023-03-01T02:58:29.162Z,20.45
2023-03-01T02:59:18.155Z,19.35
2023-03-01T03:00:08.668Z,22.67
2023-03-01T03:00:55.796Z,25.27
2023-03-01T03:01:43.134Z,21.27
2023-03-01T03:02:37.738Z,19.55
2023-03-01T03:03:24.670Z,22.58
2023-03-01T03:04:18.252Z,21.15
2023-03-01T03:05:12.414Z,21.73
2023-03-01T03:05:59.372Z,21.25
2023-03-01T03:06:47.124Z,20.33
2023-03-01T03:07:36.238Z,21.80
2023-03-01T03:08:25.500Z,27.17
2023-03-01T03:09:14.721Z,20.75
2023-03-01T03:10:04.792Z,23.42
2023-03-01T03:10:51.646Z,20.98
2023-03-01T03:11:40.324Z,21.73
2023-03-01T03:12:27.239Z,21.45
2023-03-01T03:13:15.703Z,21.80
2023-03-01T03:14:02.926Z,23.48
2023-03-01T03:14:50.222Z,22.85
2023-03-01T03:15:37.381Z,23.40
2023-03-01T03:16:24.534Z,23.98
2023-03-01T03:17:11.444Z,22.77
2023-03-01T03:17:59.693Z,22.85
2023-03-01T03:18:46.605Z,23.98
2023-03-01T03:19:33.492Z,26.05
2023-03-01T03:20:31.946Z,23.35
2023-03-01T03:21:19.404Z,21.05
2023-03-01T03:22:06.424Z,22.92
2023-03-01T03:22:54.879Z,23.27
2023-03-01T03:23:42.100Z,24.15
2023-03-01T03:24:39.083Z,22.62
2023-03-01T03:25:27.224Z,23.08
2023-03-01T03:26:14.534Z,23.05
2023-03-01T03:27:01.425Z,22.23
2023-03-01T03:27:50.797Z,24.90
2023-03-01T03:28:41.023Z,25.88
2023-03-01T03:29:29.390Z,24.42
2023-03-01T03:30:20.153Z,28.10
2023-03-01T03:31:11.141Z,30.10
2023-03-01T03:31:58.312Z,30.00
2023-03-01T03:32:53.484Z,26.58
2023-03-01T03:33:40.427Z,31.50
2023-03-01T03:34:27.260Z,27.50
2023-03-01T03:35:14.167Z,30.33
2023-03-01T03:36:01.055Z,31.25
2023-03-01T03:36:47.984Z,29.87
2023-03-01T03:37:53.353Z,28.90
2023-03-01T03:38:41.244Z,28.83
2023-03-01T03:39:28.444Z,28.23
2023-03-01T03:40:16.700Z,31.62
2023-03-01T03:41:06.648Z,28.80
2023-03-01T03:41:54.282Z,31.20
2023-03-01T03:42:41.110Z,33.55
2023-03-01T03:43:27.972Z,37.78
2023-03-01T03:44:14.832Z,31.98
2023-03-01T03:45:01.754Z,34.47
2023-03-01T03:45:50.218Z,31.27
2023-03-01T03:46:37.112Z,32.25
2023-03-01T03:47:23.983Z,29.85
2023-03-01T03:48:11.378Z,29.87
2023-03-01T03:48:58.238Z,30.10
2023-03-01T03:49:45.124Z,31.40
2023-03-01T03:50:32.477Z,31.83
2023-03-01T03:51:20.080Z,37.60
2023-03-01T03:52:14.517Z,34.95
2023-03-01T03:53:02.845Z,36.17
2023-03-01T03:53:49.716Z,34.00
2023-03-01T03:54:36.697Z,34.63
2023-03-01T03:55:24.142Z,35.10
2023-03-01T03:56:11.059Z,34.30
2023-03-01T03:56:58.017Z,35.33
2023-03-01T03:57:45.271Z,32.90
2023-03-01T03:58:32.220Z,32.45
2023-03-01T03:59:19.118Z,33.00
2023-03-01T04:00:13.836Z,34.00
2023-03-01T04:01:02.036Z,37.17
2023-03-01T04:01:48.854Z,37.80
2023-03-01T04:02:35.858Z,35.85
2023-03-01T04:03:23.529Z,37.17
2023-03-01T04:04:13.748Z,36.33
2023-03-01T04:05:00.908Z,32.03
2023-03-01T04:05:48.475Z,33.85
2023-03-01T04:06:35.359Z,35.10
2023-03-01T04:07:22.205Z,35.15
2023-03-01T04:08:09.875Z,37.60
2023-03-01T04:09:01.156Z,36.50
2023-03-01T04:09:48.002Z,31.45
2023-03-01T04:10:37.444Z,32.85
2023-03-01T04:11:27.209Z,35.17
2023-03-01T04:12:14.110Z,33.20
2023-03-01T04:13:01.396Z,34.50
2023-03-01T04:13:48.547Z,33.67
2023-03-01T04:14:35.488Z,31.65
2023-03-01T04:15:23.951Z,32.08
2023-03-01T04:16:11.133Z,33.28
2023-03-01T04:16:58.499Z,36.10
2023-03-01T04:17:47.319Z,34.90
2023-03-01T04:18:34.192Z,35.03
2023-03-01T04:19:21.093Z,32.28
2023-03-01T04:20:12.303Z,30.20
2023-03-01T04:20:59.122Z,29.73
2023-03-01T04:21:46.226Z,33.35
2023-03-01T04:22:34.716Z,32.20
2023-03-01T04:23:22.230Z,31.55
2023-03-01T04:24:10.788Z,31.90
2023-03-01T04:24:57.749Z,34.05
2023-03-01T04:25:55.919Z,38.15
2023-03-01T04:26:42.790Z,36.25
2023-03-01T04:27:29.612Z,35.17
2023-03-01T04:28:17.264Z,35.63
2023-03-01T04:29:04.447Z,34.25
2023-03-01T04:29:51.326Z,33.70
2023-03-01T04:30:39.692Z,31.62
2023-03-01T04:31:26.581Z,34.28
2023-03-01T04:32:15.059Z,36.13
2023-03-01T04:33:02.002Z,31.92
2023-03-01T04:33:54.634Z,36.42
2023-03-01T04:34:41.491Z,32.15
2023-03-01T04:35:29.022Z,37.97
2023-03-01T04:36:18.676Z,30.77
2023-03-01T04:37:07.425Z,36.10
2023-03-01T04:37:54.275Z,32.17
2023-03-01T04:38:41.955Z,35.63
2023-03-01T04:39:28.877Z,31.98
2023-03-01T04:40:17.407Z,34.53
2023-03-01T04:41:09.668Z,34.75
2023-03-01T04:41:56.600Z,40.47
2023-03-01T04:42:44.361Z,39.10
2023-03-01T04:43:31.274Z,38.58
2023-03-01T04:44:18.187Z,34.60
2023-03-01T04:45:14.271Z,35.40
2023-03-01T04:46:07.524Z,37.25
2023-03-01T04:46:54.379Z,34.75
2023-03-01T04:47:47.093Z,35.45
2023-03-01T04:48:33.971Z,35.03
2023-03-01T04:49:20.895Z,34.10
2023-03-01T04:50:09.228Z,36.42
2023-03-01T04:50:56.170Z,39.33
2023-03-01T04:51:43.428Z,37.38
2023-03-01T04:52:30.287Z,39.30
2023-03-01T04:53:17.184Z,38.97
2023-03-01T04:54:04.449Z,40.60
2023-03-01T04:54:51.360Z,38.58
2023-03-01T04:55:38.265Z,38.38
2023-03-01T04:56:25.416Z,36.63
2023-03-01T04:57:13.135Z,37.05
2023-03-01T04:58:00.094Z,35.47
2023-03-01T04:58:47.541Z,37.08
2023-03-01T04:59:34.680Z,36.47
2023-03-01T05:00:22.120Z,38.15
2023-03-01T05:01:21.850Z,35.50
2023-03-01T05:02:08.731Z,35.25
2023-03-01T05:03:01.561Z,38.92
2023-03-01T05:03:50.384Z,39.03
2023-03-01T05:04:37.303Z,35.42
2023-03-01T05:05:29.542Z,37.78
2023-03-01T05:06:16.992Z,38.47
2023-03-01T05:07:03.914Z,40.63
2023-03-01T05:07:50.834Z,34.25
2023-03-01T05:08:39.233Z,35.42
2023-03-01T05:09:26.205Z,37.55
2023-03-01T05:10:13.083Z,35.53
2023-03-01T05:10:59.996Z,37.67
2023-03-01T05:11:47.108Z,37.53
2023-03-01T05:12:34.141Z,38.40
2023-03-01T05:13:22.350Z,40.67
2023-03-01T05:14:10.426Z,37.03
2023-03-01T05:14:57.285Z,36.45
2023-03-01T05:15:44.217Z,34.90
2023-03-01T05:16:34.807Z,38.22
2023-03-01T05:17:22.680Z,33.05
2023-03-01T05:18:12.492Z,33.90
2023-03-01T05:18:59.776Z,36.80
2023-03-01T05:19:47.368Z,35.03
2023-03-01T05:20:37.430Z,39.67
2023-03-01T05:21:24.593Z,35.33
2023-03-01T05:22:11.444Z,34.53
2023-03-01T05:23:00.113Z,36.50
2023-03-01T05:23:48.021Z,35.80
2023-03-01T05:24:36.106Z,36.47
2023-03-01T05:25:23.404Z,34.58
2023-03-01T05:26:25.766Z,32.83
2023-03-01T05:27:14.976Z,34.72
2023-03-01T05:28:05.569Z,36.55
2023-03-01T05:28:52.455Z,36.58
2023-03-01T05:29:40.675Z,35.72
2023-03-01T05:30:28.377Z,35.28
2023-03-01T05:31:15.310Z,40.12
2023-03-01T05:32:03.894Z,37.20
2023-03-01T05:32:56.962Z,36.97
2023-03-01T05:33:44.638Z,39.00
2023-03-01T05:34:34.017Z,36.10
2023-03-01T05:35:21.117Z,39.88
2023-03-01T05:36:10.859Z,37.92
2023-03-01T05:36:58.404Z,39.17
2023-03-01T05:37:48.650Z,37.65
2023-03-01T05:38:35.703Z,37.22
2023-03-01T05:39:24.253Z,37.70
2023-03-01T05:40:16.794Z,35.10
2023-03-01T05:41:03.759Z,38.72
2023-03-01T05:41:58.323Z,38.25
2023-03-01T05:42:55.243Z,37.17
2023-03-01T05:43:44.740Z,37.08
2023-03-01T05:44:31.614Z,36.17
2023-03-01T05:45:19.228Z,37.38
2023-03-01T05:46:06.336Z,36.50
2023-03-01T05:46:53.740Z,38.05
2023-03-01T05:47:44.869Z,39.53
2023-03-01T05:48:31.859Z,39.03
2023-03-01T05:49:19.490Z,35.50
2023-03-01T05:50:08.694Z,33.45
2023-03-01T05:50:55.597Z,37.85
2023-03-01T05:51:43.872Z,43.63
2023-03-01T05:52:30.857Z,38.65
2023-03-01T05:53:20.712Z,37.03
2023-03-01T05:54:08.338Z,41.75
2023-03-01T05:54:55.439Z,43.35
2023-03-01T05:55:43.930Z,44.40
2023-03-01T05:56:31.442Z,44.38
2023-03-01T05:57:18.742Z,47.08
2023-03-01T05:58:08.404Z,54.67
2023-03-01T05:58:56.075Z,48.92
2023-03-01T05:59:42.932Z,47.80
2023-03-01T06:00:31.119Z,49.95
2023-03-01T06:01:17.994Z,48.97
2023-03-01T06:02:04.945Z,47.92
2023-03-01T06:02:53.010Z,49.78
2023-03-01T06:03:39.986Z,46.05
2023-03-01T06:04:27.110Z,50.58
2023-03-01T06:05:14.686Z,49.50
2023-03-01T06:06:02.014Z,51.10
2023-03-01T06:06:49.067Z,53.40
2023-03-01T06:07:36.432Z,46.85
2023-03-01T06:08:23.576Z,47.38
2023-03-01T06:09:11.052Z,46.80
2023-03-01T06:09:57.901Z,49.80
2023-03-01T06:10:44.747Z,47.28
2023-03-01T06:11:31.667Z,51.75
2023-03-01T06:12:18.824Z,44.92
2023-03-01T06:13:05.848Z,46.37
2023-03-01T06:13:52.710Z,45.65
2023-03-01T06:14:39.649Z,45.80
2023-03-01T06:15:26.804Z,43.50
2023-03-01T06:16:14.366Z,46.70
2023-03-01T06:17:01.322Z,44.90
2023-03-01T06:17:48.216Z,45.30
2023-03-01T06:18:35.045Z,44.40
2023-03-01T06:19:21.889Z,45.33
2023-03-01T06:20:12.732Z,47.83
2023-03-01T06:20:59.730Z,43.72
2023-03-01T06:21:46.780Z,45.58
2023-03-01T06:22:33.732Z,42.97
2023-03-01T06:23:20.612Z,42.17
2023-03-01T06:24:08.587Z,43.67
2023-03-01T06:24:55.818Z,43.85
2023-03-01T06:25:43.197Z,42.33
2023-03-01T06:26:30.424Z,44.00
2023-03-01T06:27:17.671Z,42.25
2023-03-01T06:28:06.113Z,41.20
2023-03-01T06:28:53.056Z,44.88
2023-03-01T06:29:41.757Z,40.83
2023-03-01T06:30:28.762Z,42.83
2023-03-01T06:31:15.927Z,47.38
2023-03-01T06:32:04.208Z,42.78
2023-03-01T06:32:51.288Z,44.58
2023-03-01T06:33:38.193Z,42.70
2023-03-01T06:34:25.230Z,44.58
2023-03-01T06:35:14.080Z,40.50
2023-03-01T06:36:01.153Z,41.45
2023-03-01T06:37:34.939Z,47.65
2023-03-01T06:38:43.758Z,41.90
2023-03-01T06:39:31.125Z,41.55
2023-03-01T06:40:46.760Z,38.70
2023-03-01T06:41:35.268Z,39.60
2023-03-01T06:43:15.487Z,41.28
2023-03-01T06:58:54.693Z,43.42
2023-03-01T06:59:41.773Z,42.50
2023-03-01T07:00:29.870Z,44.83
2023-03-01T07:01:17.159Z,45.78
2023-03-01T07:02:04.742Z,42.75
2023-03-01T07:02:52.396Z,44.70
2023-03-01T07:03:39.378Z,42.45
2023-03-01T07:04:26.286Z,43.60
2023-03-01T07:05:13.228Z,42.65
2023-03-01T07:06:00.701Z,51.03
2023-03-01T07:06:53.291Z,47.33
2023-03-01T07:07:41.095Z,46.47
2023-03-01T07:08:28.751Z,44.70
2023-03-01T07:09:21.060Z,43.65
2023-03-01T07:10:09.456Z,43.72
2023-03-01T07:10:57.973Z,44.63
2023-03-01T07:11:45.643Z,48.92
2023-03-01T07:12:32.499Z,45.47
2023-03-01T07:13:19.477Z,43.67
2023-03-01T07:14:08.232Z,44.55
2023-03-01T07:14:55.140Z,45.03
2023-03-01T07:15:43.210Z,47.10
2023-03-01T07:16:30.534Z,40.33
2023-03-01T07:17:17.998Z,45.33
2023-03-01T07:18:04.880Z,45.70
2023-03-01T07:18:51.993Z,46.50
2023-03-01T07:19:39.006Z,51.60
2023-03-01T07:20:26.779Z,48.70
2023-03-01T07:21:15.196Z,43.03
2023-03-01T07:22:02.356Z,46.28
2023-03-01T07:22:49.458Z,40.70
2023-03-01T07:23:36.357Z,42.47
2023-03-01T07:24:23.406Z,43.58
2023-03-01T07:25:19.266Z,45.22
2023-03-01T07:26:06.348Z,47.88
2023-03-01T07:26:55.027Z,50.58
2023-03-01T07:27:45.019Z,49.25
2023-03-01T07:28:31.958Z,46.88
2023-03-01T07:29:19.252Z,42.85
2023-03-01T07:30:06.881Z,45.58
2023-03-01T07:30:53.885Z,44.50
2023-03-01T07:31:40.756Z,38.92
2023-03-01T07:32:27.707Z,47.80
2023-03-01T07:33:14.631Z,49.35
2023-03-01T07:34:01.576Z,42.62
2023-03-01T07:34:48.830Z,46.72
2023-03-01T07:35:35.767Z,46.30
2023-03-01T07:36:22.914Z,43.08
2023-03-01T07:37:10.528Z,48.17
2023-03-01T07:37:57.766Z,40.00
2023-03-01T07:38:45.281Z,45.58
2023-03-01T07:39:32.185Z,42.25
2023-03-01T07:40:19.136Z,49.40
2023-03-01T07:41:06.946Z,43.70
2023-03-01T07:41:55.867Z,41.88
2023-03-01T07:42:43.546Z,41.67
2023-03-01T07:43:31.637Z,45.72
2023-03-01T07:44:19.181Z,48.92
2023-03-01T07:45:08.247Z,46.28
2023-03-01T07:46:00.230Z,45.33
2023-03-01T07:46:47.195Z,49.47
2023-03-01T07:47:36.272Z,52.35
2023-03-01T07:48:23.296Z,43.95
2023-03-01T07:49:10.603Z,43.95
2023-03-01T07:50:21.483Z,44.42
2023-03-01T07:52:16.695Z,44.60
2023-03-01T07:53:04.003Z,43.50
2023-03-01T07:55:10.125Z,48.92
2023-03-01T07:56:13.584Z,51.58
2023-03-01T07:57:00.517Z,46.30
2023-03-01T07:57:47.415Z,47.83
2023-03-01T07:58:39.040Z,49.97
2023-03-01T07:59:30.272Z,51.03
2023-03-01T08:00:21.086Z,49.58
2023-03-01T08:01:09.966Z,47.70
2023-03-01T08:02:00.306Z,55.78
2023-03-01T08:02:47.436Z,48.55
2023-03-01T08:03:35.186Z,61.53
2023-03-01T08:04:22.412Z,51.60
2023-03-01T08:05:11.325Z,48.10
2023-03-01T08:06:00.836Z,54.00
2023-03-01T08:06:47.774Z,51.70
2023-03-01T08:07:34.902Z,50.55
2023-03-01T08:08:21.885Z,49.45
2023-03-01T08:09:11.901Z,52.28
2023-03-01T08:09:59.224Z,37.42
2023-03-01T08:10:46.250Z,49.90
2023-03-01T08:11:33.342Z,53.83
2023-03-01T08:12:20.603Z,53.92
2023-03-01T08:13:07.654Z,53.60
2023-03-01T08:13:54.793Z,49.15
2023-03-01T08:14:42.094Z,49.70
2023-03-01T08:15:29.111Z,50.97
2023-03-01T08:16:17.417Z,54.05
2023-03-01T08:17:04.572Z,56.17
2023-03-01T08:17:54.562Z,54.15
2023-03-01T08:18:41.765Z,51.58
2023-03-01T08:19:29.371Z,53.10
2023-03-01T08:20:19.997Z,50.83
2023-03-01T08:21:10.114Z,50.50
2023-03-01T08:21:59.593Z,50.63
2023-03-01T08:22:46.665Z,49.78
2023-03-01T08:23:33.912Z,53.60
2023-03-01T08:24:21.270Z,51.35
2023-03-01T08:25:08.639Z,55.90
2023-03-01T08:25:55.856Z,49.70
2023-03-01T08:26:43.211Z,54.45
2023-03-01T08:27:30.303Z,52.80
2023-03-01T08:28:17.386Z,55.80
2023-03-01T08:29:05.178Z,57.92
2023-03-01T08:29:52.142Z,50.58
2023-03-01T08:30:39.281Z,51.40
2023-03-01T08:31:30.062Z,53.22
2023-03-01T08:32:17.233Z,51.03
2023-03-01T08:33:04.425Z,53.90
2023-03-01T08:33:56.649Z,49.33
2023-03-01T08:34:43.703Z,47.92
2023-03-01T08:35:30.793Z,52.60
2023-03-01T08:36:18.501Z,49.30
2023-03-01T08:37:07.782Z,54.90
2023-03-01T08:37:54.988Z,52.95
2023-03-01T08:38:42.091Z,48.75
2023-03-01T08:39:29.198Z,48.42
2023-03-01T08:40:16.605Z,48.05
2023-03-01T08:41:04.725Z,46.58
2023-03-01T08:41:51.710Z,49.10
2023-03-01T08:42:38.710Z,52.53
2023-03-01T08:43:26.483Z,50.08
2023-03-01T08:44:15.311Z,51.50
2023-03-01T08:45:02.312Z,48.92
2023-03-01T08:45:50.310Z,50.33
2023-03-01T08:46:39.671Z,48.10
2023-03-01T08:47:27.534Z,49.05
2023-03-01T08:48:14.563Z,52.65
2023-03-01T08:49:01.698Z,49.28
2023-03-01T08:49:51.062Z,50.75
2023-03-01T08:50:38.107Z,49.83
2023-03-01T08:51:25.836Z,52.88
2023-03-01T08:52:12.897Z,44.80
2023-03-01T08:53:02.043Z,42.78
2023-03-01T08:53:49.704Z,44.90
2023-03-01T08:54:38.065Z,39.15
2023-03-01T08:55:25.128Z,42.30
2023-03-01T08:56:12.405Z,42.33
2023-03-01T08:57:00.393Z,45.05
2023-03-01T08:57:47.346Z,45.67
2023-03-01T08:58:34.503Z,43.33
2023-03-01T08:59:21.730Z,52.83
2023-03-01T09:00:09.983Z,50.12
2023-03-01T09:00:57.946Z,52.70
2023-03-01T09:01:45.497Z,49.22
2023-03-01T09:02:32.615Z,52.97
2023-03-01T09:03:19.713Z,46.95
2023-03-01T09:04:55.436Z,46.78
2023-03-01T09:05:42.695Z,49.42
2023-03-01T09:06:34.314Z,46.55
2023-03-01T09:07:21.371Z,47.30
2023-03-01T09:08:09.613Z,46.95
2023-03-01T09:08:56.843Z,51.30
2023-03-01T09:09:43.941Z,48.53
2023-03-01T09:10:31.154Z,48.70
2023-03-01T09:11:22.522Z,47.22
2023-03-01T09:12:09.693Z,46.95
2023-03-01T09:12:56.745Z,48.53
2023-03-01T09:13:47.561Z,46.03
2023-03-01T09:14:34.733Z,47.30
2023-03-01T09:15:21.749Z,42.28
2023-03-01T09:16:10.396Z,42.13
2023-03-01T09:16:57.539Z,41.30
2023-03-01T09:17:45.114Z,41.13
2023-03-01T09:18:32.405Z,40.28
2023-03-01T09:19:21.612Z,38.53
2023-03-01T09:20:09.312Z,35.55
2023-03-01T09:21:10.678Z,40.67
2023-03-01T09:21:59.543Z,39.88
2023-03-01T09:22:46.595Z,44.15
2023-03-01T09:23:33.966Z,41.72
2023-03-01T09:24:23.147Z,38.83
2023-03-01T09:25:10.985Z,47.15
2023-03-01T09:25:58.029Z,39.58
2023-03-01T09:26:48.865Z,38.47
2023-03-01T09:27:36.925Z,39.88
2023-03-01T09:28:29.825Z,37.83
2023-03-01T09:29:18.028Z,36.08
2023-03-01T09:30:05.699Z,31.65
2023-03-01T09:30:52.796Z,36.85
2023-03-01T09:31:40.188Z,33.58
2023-03-01T09:32:27.298Z,37.75
2023-03-01T09:33:15.856Z,33.38
2023-03-01T09:34:02.923Z,40.60
2023-03-01T09:35:08.090Z,34.35
2023-03-01T09:35:59.519Z,34.55
2023-03-01T09:36:46.751Z,30.80
2023-03-01T09:37:35.288Z,32.45
2023-03-01T09:38:22.527Z,33.38
2023-03-01T09:39:09.702Z,33.22
2023-03-01T09:39:56.818Z,33.22
2023-03-01T09:40:47.610Z,34.78
2023-03-01T09:42:03.530Z,26.90
2023-03-01T09:42:54.475Z,25.10
2023-03-01T09:43:49.875Z,29.00
2023-03-01T09:44:54.907Z,32.92
2023-03-01T09:45:45.633Z,32.00
2023-03-01T09:46:39.274Z,31.55
2023-03-01T09:47:29.828Z,36.53
2023-03-01T09:48:23.465Z,31.05
2023-03-01T09:49:33.619Z,27.60
2023-03-01T09:50:21.966Z,23.25
2023-03-01T09:51:15.632Z,25.88
2023-03-01T09:52:06.158Z,26.25
2023-03-01T09:53:50.070Z,31.17
2023-03-01T09:54:37.140Z,30.85
2023-03-01T09:55:41.040Z,24.80
2023-03-01T09:56:37.372Z,28.38
2023-03-01T09:57:46.848Z,30.60
2023-03-01T09:58:41.099Z,31.75
2023-03-01T09:59:51.587Z,26.10
2023-03-01T10:00:43.911Z,24.45
2023-03-01T10:01:34.042Z,25.77
2023-03-01T10:02:44.326Z,30.70
2023-03-01T10:03:38.403Z,32.28
2023-03-01T10:04:43.271Z,26.50
2023-03-01T10:06:27.412Z,26.85
2023-03-01T10:07:29.538Z,24.83
2023-03-01T10:08:30.540Z,28.33
2023-03-01T10:09:18.509Z,25.85
2023-03-01T10:10:09.969Z,24.70
2023-03-01T10:10:57.123Z,26.17
2023-03-01T10:11:48.670Z,24.08
2023-03-01T10:12:41.452Z,22.15
2023-03-01T10:14:12.420Z,27.83
2023-03-01T10:15:19.629Z,26.58
2023-03-01T10:16:31.492Z,26.17
2023-03-01T10:17:35.040Z,27.42
2023-03-01T10:18:30.494Z,26.25
2023-03-01T10:19:32.779Z,25.75
2023-03-01T10:20:22.794Z,28.45
2023-03-01T10:21:21.344Z,28.30
2023-03-01T10:22:22.655Z,28.77
2023-03-01T10:23:10.360Z,25.42
2023-03-01T10:24:02.757Z,29.77
2023-03-01T10:24:53.058Z,28.60
2023-03-01T10:25:44.127Z,25.55
2023-03-01T10:26:43.486Z,30.08
2023-03-01T10:27:53.091Z,28.40
2023-03-01T10:29:10.977Z,28.62
2023-03-01T10:30:10.955Z,30.27
2023-03-01T10:30:59.577Z,22.10
2023-03-01T10:31:52.061Z,24.70
2023-03-01T10:32:39.539Z,25.98
2023-03-01T10:33:33.639Z,28.30
2023-03-01T10:34:30.352Z,27.60
2023-03-01T10:35:22.469Z,27.45
2023-03-01T10:36:09.941Z,27.20
2023-03-01T10:36:59.204Z,26.75
2023-03-01T10:38:18.858Z,26.45
2023-03-01T10:39:16.428Z,25.85
2023-03-01T10:40:10.721Z,25.40
2023-03-01T10:40:59.461Z,25.52
2023-03-01T10:41:54.097Z,25.25
2023-03-01T10:42:48.613Z,26.40
2023-03-01T10:43:48.967Z,28.80
2023-03-01T10:44:50.105Z,22.70
2023-03-01T10:45:41.880Z,24.27
2023-03-01T10:46:34.950Z,23.85
2023-03-01T10:47:25.919Z,23.08
2023-03-01T10:48:25.797Z,27.45
2023-03-01T10:49:20.930Z,24.52
2023-03-01T10:50:23.400Z,22.77
2023-03-01T10:51:21.011Z,26.42
2023-03-01T10:52:38.043Z,22.67
2023-03-01T10:53:32.098Z,23.15
2023-03-01T10:54:23.248Z,25.17
2023-03-01T10:55:29.019Z,24.42
2023-03-01T10:56:19.030Z,23.87
2023-03-01T10:57:06.660Z,28.33
2023-03-01T10:58:21.035Z,27.08
2023-03-01T10:59:23.450Z,26.67
2023-03-01T11:00:20.286Z,24.50
2023-03-01T11:01:07.424Z,27.35
2023-03-01T11:02:25.722Z,24.15
2023-03-01T11:03:15.493Z,24.35
2023-03-01T11:04:08.864Z,25.12
2023-03-01T11:05:14.160Z,24.02
2023-03-01T11:06:01.389Z,23.52